HCA weather

Big Spring Mc Mahon-Wrinkle Airport
Big Spring, Texas, United States

Public forecast

Using degrees Fahrenheit for public forecast. Weather courtesy of forecast.io.

Current aviation weather report (METAR) for Big Spring Mc Mahon-Wrinkle Airport

Retrieved 2020/02/26 17:35 UTC (23 minutes ago):

KBPG 261735Z AUTO 36012KT 10SM CLR 03/M11 A3055 RMK AO2 T00281107

Closest aviation forecast (TAF) to Big Spring Mc Mahon-Wrinkle Airport

Closest forecast is Midland International Airport, 38.2 nm (70.8 km) WSW. Retrieved 2020/02/26 12:30 UTC (5 hours ago):

TAF KMAF 261129Z 2612/2712 35015KT P6SM SKC FM270100 VRB05KT P6SM SKC